createdAt,value
2019-06-10T00:01:23.640Z,18.10
2019-06-10T00:03:51.839Z,17.70
2019-06-10T00:06:20.790Z,17.70
2019-06-10T00:08:46.302Z,17.70
2019-06-10T00:11:12.534Z,17.70
2019-06-10T00:13:41.297Z,17.70
2019-06-10T00:16:08.022Z,17.80
2019-06-10T00:18:41.782Z,17.70
2019-06-10T00:21:04.944Z,17.40
2019-06-10T00:23:32.002Z,17.70
2019-06-10T00:26:01.268Z,17.60
2019-06-10T00:28:26.649Z,17.60
2019-06-10T00:30:52.879Z,17.60
2019-06-10T00:33:21.446Z,17.80
2019-06-10T00:35:47.289Z,17.50
2019-06-10T00:38:14.549Z,17.50
2019-06-10T00:40:41.673Z,17.40
2019-06-10T00:43:09.180Z,17.70
2019-06-10T00:45:36.622Z,17.70
2019-06-10T00:48:12.354Z,18.00
2019-06-10T00:50:31.204Z,17.80
2019-06-10T00:52:57.444Z,18.00
2019-06-10T00:55:23.789Z,17.90
2019-06-10T00:57:50.968Z,17.70
2019-06-10T01:00:25.239Z,17.50
2019-06-10T01:02:46.201Z,17.50
2019-06-10T01:05:15.299Z,17.50
2019-06-10T01:07:41.503Z,17.80
2019-06-10T01:10:09.005Z,17.80
2019-06-10T01:12:35.384Z,18.00
2019-06-10T01:15:03.175Z,17.60
2019-06-10T01:17:31.113Z,17.40
2019-06-10T01:19:57.774Z,17.70
2019-06-10T01:22:24.105Z,18.00
2019-06-10T01:24:51.054Z,17.40
2019-06-10T01:27:18.060Z,17.70
2019-06-10T01:29:44.430Z,17.50
2019-06-10T01:32:12.277Z,17.50
2019-06-10T01:34:41.544Z,17.50
2019-06-10T01:37:07.257Z,17.40
2019-06-10T01:39:33.494Z,17.70
2019-06-10T01:42:00.593Z,17.60
2019-06-10T01:44:27.038Z,17.20
2019-06-10T01:46:53.289Z,17.50
2019-06-10T01:49:21.355Z,17.30
2019-06-10T01:51:47.670Z,17.20
2019-06-10T01:54:16.443Z,17.30
2019-06-10T01:56:42.820Z,17.50
2019-06-10T01:59:12.146Z,17.20
2019-06-10T02:01:45.118Z,17.30
2019-06-10T02:04:14.369Z,17.00
2019-06-10T02:06:40.597Z,17.20
2019-06-10T02:09:07.128Z,17.10
2019-06-10T02:11:34.269Z,17.10
2019-06-10T02:14:01.499Z,16.80
2019-06-10T02:16:27.759Z,17.00
2019-06-10T02:19:00.252Z,16.80
2019-06-10T02:21:24.409Z,17.10
2019-06-10T02:23:52.063Z,16.60
2019-06-10T02:26:19.906Z,16.60
2019-06-10T02:28:46.934Z,16.90
2019-06-10T02:31:17.505Z,16.70
2019-06-10T02:33:42.137Z,16.50
2019-06-10T02:36:08.514Z,16.50
2019-06-10T02:38:39.275Z,16.80
2019-06-10T02:41:04.751Z,16.30
2019-06-10T02:43:36.152Z,16.30
2019-06-10T02:45:59.485Z,16.70
2019-06-10T02:48:30.274Z,16.60
2019-06-10T02:51:03.892Z,16.70
2019-06-10T02:53:35.598Z,16.70
2019-06-10T02:55:59.944Z,16.90
2019-06-10T02:58:31.525Z,17.10
2019-06-10T03:00:54.804Z,16.70
2019-06-10T03:03:31.680Z,17.20
2019-06-10T03:05:49.423Z,16.90
2019-06-10T03:08:16.185Z,16.80
2019-06-10T03:10:44.418Z,16.80
2019-06-10T03:13:12.676Z,17.20
2019-06-10T03:15:43.891Z,17.10
2019-06-10T03:18:12.806Z,17.10
2019-06-10T03:20:38.515Z,16.90
2019-06-10T03:23:05.094Z,16.80
2019-06-10T03:25:32.789Z,16.90
2019-06-10T03:27:59.173Z,16.90
2019-06-10T03:30:37.605Z,17.20
2019-06-10T03:32:55.545Z,16.90
2019-06-10T03:35:24.218Z,17.10
2019-06-10T03:37:52.688Z,16.90
2019-06-10T03:40:18.603Z,16.60
2019-06-10T03:42:45.258Z,16.30
2019-06-10T03:45:12.824Z,16.30
2019-06-10T03:47:39.256Z,16.50
2019-06-10T03:50:06.401Z,16.30
2019-06-10T03:52:32.640Z,16.70
2019-06-10T03:54:58.926Z,16.70
2019-06-10T03:57:26.826Z,16.50
2019-06-10T03:59:53.301Z,16.40
2019-06-10T04:02:19.539Z,16.50
2019-06-10T04:04:45.796Z,16.70
2019-06-10T04:07:14.230Z,16.50
2019-06-10T04:09:42.384Z,16.60
2019-06-10T04:12:08.309Z,16.40
2019-06-10T04:14:34.555Z,16.50
2019-06-10T04:17:02.698Z,16.50
2019-06-10T04:19:29.343Z,16.30
2019-06-10T04:21:56.084Z,16.70
2019-06-10T04:24:24.243Z,16.90
2019-06-10T04:26:52.159Z,16.80
2019-06-10T04:29:18.505Z,16.90
2019-06-10T04:31:44.993Z,16.80
2019-06-10T04:34:12.400Z,17.10
2019-06-10T04:36:42.074Z,16.60
2019-06-10T04:39:07.737Z,17.00
2019-06-10T04:41:33.980Z,16.90
2019-06-10T04:44:02.697Z,16.80
2019-06-10T04:46:29.643Z,16.50
2019-06-10T04:48:56.077Z,16.60
2019-06-10T04:51:23.864Z,16.70
2019-06-10T04:53:52.407Z,16.50
2019-06-10T04:56:19.690Z,16.70
2019-06-10T04:58:46.197Z,16.70
2019-06-10T05:01:12.462Z,17.20
2019-06-10T05:03:38.784Z,17.10
2019-06-10T05:06:05.036Z,17.20
2019-06-10T05:08:33.818Z,16.70
2019-06-10T05:10:59.515Z,16.80
2019-06-10T05:13:27.030Z,17.00
2019-06-10T05:15:54.115Z,16.80
2019-06-10T05:18:23.837Z,16.70
2019-06-10T05:20:57.711Z,16.60
2019-06-10T05:23:16.653Z,17.20
2019-06-10T05:25:42.896Z,17.20
2019-06-10T05:28:09.116Z,17.00
2019-06-10T05:30:35.354Z,17.20
2019-06-10T05:33:02.987Z,17.60
2019-06-10T05:35:29.927Z,17.20
2019-06-10T05:37:57.405Z,17.30
2019-06-10T05:40:25.155Z,17.30
2019-06-10T05:42:52.880Z,17.20
2019-06-10T05:45:19.349Z,17.70
2019-06-10T05:47:45.937Z,18.10
2019-06-10T05:50:12.939Z,18.40
2019-06-10T05:52:39.401Z,18.50
2019-06-10T05:55:05.841Z,18.50
2019-06-10T05:57:34.123Z,18.90
2019-06-10T06:00:02.988Z,19.10
2019-06-10T06:02:29.837Z,19.40
2019-06-10T06:04:56.424Z,19.90
2019-06-10T06:07:22.649Z,19.40
2019-06-10T06:09:48.984Z,18.80
2019-06-10T06:12:15.322Z,18.90
2019-06-10T06:14:42.585Z,19.00
2019-06-10T06:17:09.106Z,18.80
2019-06-10T06:19:37.319Z,18.90
2019-06-10T06:22:03.572Z,19.00
2019-06-10T06:24:29.902Z,18.80
2019-06-10T06:26:56.239Z,19.20
2019-06-10T06:29:22.569Z,19.40
2019-06-10T06:31:48.793Z,19.50
2019-06-10T06:34:15.035Z,19.90
2019-06-10T06:36:42.281Z,20.20
2019-06-10T06:39:09.105Z,20.10
2019-06-10T06:41:37.178Z,19.90
2019-06-10T06:44:03.777Z,19.80
2019-06-10T06:46:32.516Z,20.00
2019-06-10T06:48:58.148Z,20.50
2019-06-10T06:51:35.816Z,20.00
2019-06-10T06:53:56.125Z,20.40
2019-06-10T06:56:23.054Z,20.20
2019-06-10T06:58:49.288Z,20.00
2019-06-10T07:01:15.633Z,19.50
2019-06-10T07:03:45.136Z,19.60
2019-06-10T07:06:13.040Z,19.70
2019-06-10T07:08:39.384Z,19.40
2019-06-10T07:11:07.613Z,19.60
2019-06-10T07:13:35.919Z,19.50
2019-06-10T07:16:03.019Z,20.10
2019-06-10T07:18:29.510Z,19.80
2019-06-10T07:20:55.757Z,19.50
2019-06-10T07:23:22.529Z,20.60
2019-06-10T07:25:49.193Z,20.60
2019-06-10T07:28:15.538Z,20.20
2019-06-10T07:30:47.247Z,20.30
2019-06-10T07:33:12.173Z,20.70
2019-06-10T07:35:38.946Z,20.80
2019-06-10T07:38:05.461Z,21.00
2019-06-10T07:40:33.406Z,21.30
2019-06-10T07:43:02.234Z,21.40
2019-06-10T07:45:27.966Z,20.90
2019-06-10T07:47:54.452Z,20.90
2019-06-10T07:50:22.711Z,20.70
2019-06-10T07:52:49.012Z,20.50
2019-06-10T07:55:15.449Z,20.20
2019-06-10T07:57:43.833Z,20.60
2019-06-10T08:00:12.533Z,19.90
2019-06-10T08:02:39.719Z,20.60
2019-06-10T08:05:07.207Z,20.90
2019-06-10T08:07:35.120Z,20.60
2019-06-10T08:10:04.294Z,20.40
2019-06-10T08:12:32.567Z,20.30
2019-06-10T08:14:59.360Z,20.10
2019-06-10T08:17:25.689Z,20.20
2019-06-10T08:19:54.385Z,20.30
2019-06-10T08:22:32.988Z,20.20
2019-06-10T08:24:48.498Z,20.30
2019-06-10T08:27:15.400Z,20.70
2019-06-10T08:29:46.200Z,20.70
2019-06-10T08:32:10.237Z,21.30
2019-06-10T08:34:37.955Z,21.10
2019-06-10T08:37:04.676Z,21.80
2019-06-10T08:39:33.469Z,22.10
2019-06-10T08:41:59.768Z,22.80
2019-06-10T08:44:26.006Z,23.00
2019-06-10T08:46:52.506Z,23.60
2019-06-10T08:49:18.973Z,24.90
2019-06-10T08:51:48.137Z,26.60
2019-06-10T08:54:13.352Z,26.20
2019-06-10T08:56:40.120Z,25.50
2019-06-10T08:59:06.421Z,26.40
2019-06-10T09:01:33.456Z,26.20
2019-06-10T09:04:02.904Z,26.30
2019-06-10T09:06:28.700Z,27.30
2019-06-10T09:08:54.936Z,28.20
2019-06-10T09:11:23.559Z,27.40
2019-06-10T09:13:50.434Z,27.60
2019-06-10T09:16:19.514Z,27.00
2019-06-10T09:18:48.024Z,27.30
2019-06-10T09:21:13.734Z,27.50
2019-06-10T09:23:41.101Z,27.90
2019-06-10T09:26:08.195Z,27.70
2019-06-10T09:28:34.446Z,26.80
2019-06-10T09:31:03.665Z,26.20
2019-06-10T09:33:28.926Z,26.50
2019-06-10T09:35:55.267Z,28.40
2019-06-10T09:38:22.335Z,29.40
2019-06-10T09:41:00.742Z,30.20
2019-06-10T09:43:22.580Z,30.90
2019-06-10T09:45:51.361Z,30.20
2019-06-10T09:48:19.474Z,29.30
2019-06-10T09:50:51.382Z,29.50
2019-06-10T09:53:26.683Z,29.00
2019-06-10T09:55:46.040Z,29.60
2019-06-10T09:58:12.362Z,30.30
2019-06-10T10:01:13.264Z,30.50
2019-06-10T10:03:41.852Z,30.70
2019-06-10T10:06:15.318Z,29.50
2019-06-10T10:08:36.700Z,29.70
2019-06-10T10:11:03.227Z,29.60
2019-06-10T10:13:29.871Z,30.40
2019-06-10T10:15:56.460Z,29.40
2019-06-10T10:18:23.602Z,29.80
2019-06-10T10:20:53.162Z,27.90
2019-06-10T10:23:18.456Z,27.60
2019-06-10T10:25:47.629Z,27.70
2019-06-10T10:28:13.463Z,29.20
2019-06-10T10:30:42.516Z,29.50
2019-06-10T10:33:07.946Z,28.60
2019-06-10T10:35:34.281Z,28.60
2019-06-10T10:38:03.705Z,31.10
2019-06-10T10:40:28.832Z,30.90
2019-06-10T10:43:10.199Z,31.50
2019-06-10T10:45:23.497Z,30.90
2019-06-10T10:47:51.843Z,29.60
2019-06-10T10:50:18.569Z,28.90
2019-06-10T10:52:46.327Z,29.00
2019-06-10T10:55:14.179Z,29.70
2019-06-10T10:57:41.249Z,30.00
2019-06-10T11:00:09.001Z,30.00
2019-06-10T11:02:35.333Z,29.20
2019-06-10T11:05:01.878Z,29.00
2019-06-10T11:07:28.115Z,29.10
2019-06-10T11:09:56.714Z,28.90
2019-06-10T11:12:23.389Z,28.80
2019-06-10T11:14:54.405Z,29.10
2019-06-10T11:17:22.191Z,28.60
2019-06-10T11:19:49.320Z,27.50
2019-06-10T11:22:15.819Z,28.30
2019-06-10T11:24:44.608Z,28.90
2019-06-10T11:27:12.736Z,29.70
2019-06-10T11:29:38.433Z,29.60
2019-06-10T11:32:04.801Z,29.20
2019-06-10T11:34:33.255Z,27.50
2019-06-10T11:36:59.282Z,27.10
2019-06-10T11:39:25.502Z,27.60
2019-06-10T11:41:53.283Z,27.30
2019-06-10T11:44:21.966Z,26.50
2019-06-10T11:46:48.606Z,26.10
2019-06-10T11:49:14.957Z,26.90
2019-06-10T11:51:41.184Z,26.50
2019-06-10T11:54:07.410Z,26.20
2019-06-10T11:56:33.776Z,25.80
2019-06-10T11:59:04.094Z,25.80
2019-06-10T12:01:28.452Z,26.70
2019-06-10T12:03:57.628Z,26.20
2019-06-10T12:06:23.268Z,26.90
2019-06-10T12:08:51.388Z,26.80
2019-06-10T12:11:17.624Z,26.70
2019-06-10T12:13:43.965Z,26.50
2019-06-10T12:18:38.446Z,26.90
2019-06-10T12:21:04.822Z,28.20
2019-06-10T12:23:33.637Z,28.20
2019-06-10T12:26:00.652Z,27.70
2019-06-10T12:28:27.201Z,27.60
2019-06-10T12:30:57.865Z,26.80
2019-06-10T12:33:25.177Z,27.00
2019-06-10T12:35:51.067Z,26.70
2019-06-10T12:38:17.857Z,25.60
2019-06-10T12:40:44.095Z,25.80
2019-06-10T12:43:12.700Z,25.20
2019-06-10T12:45:38.897Z,25.10
2019-06-10T12:48:06.928Z,25.20
2019-06-10T12:50:33.323Z,25.90
2019-06-10T12:53:00.691Z,25.70
2019-06-10T12:55:39.251Z,25.60
2019-06-10T12:57:56.183Z,25.40
2019-06-10T13:00:26.390Z,25.50
2019-06-10T13:02:53.122Z,25.40
2019-06-10T13:05:22.684Z,25.70
2019-06-10T13:07:49.280Z,25.90
2019-06-10T13:10:28.446Z,26.70
2019-06-10T13:12:55.867Z,25.90
2019-06-10T13:15:22.864Z,26.40
2019-06-10T13:17:49.275Z,25.80
2019-06-10T13:20:15.618Z,25.10
2019-06-10T13:22:43.216Z,25.30
2019-06-10T13:25:13.229Z,25.70
2019-06-10T13:27:38.525Z,25.20
2019-06-10T13:30:06.081Z,25.40
2019-06-10T13:32:32.526Z,25.40
2019-06-10T13:34:58.964Z,25.20
2019-06-10T13:37:25.205Z,24.90
2019-06-10T13:39:52.464Z,24.80
2019-06-10T13:42:18.780Z,25.00
2019-06-10T13:44:45.028Z,25.20
2019-06-10T13:47:14.373Z,24.60
2019-06-10T13:49:39.510Z,24.90
2019-06-10T13:52:11.613Z,25.00
2019-06-10T13:54:33.907Z,25.00
2019-06-10T13:57:01.485Z,25.40
2019-06-10T13:59:28.291Z,25.70
2019-06-10T14:01:54.620Z,25.20
2019-06-10T14:04:25.277Z,25.40
2019-06-10T14:06:50.688Z,25.30
2019-06-10T14:09:17.588Z,25.50
2019-06-10T14:11:43.830Z,26.00
2019-06-10T14:14:10.076Z,26.20
2019-06-10T14:16:36.612Z,26.60
2019-06-10T14:19:05.816Z,26.30
2019-06-10T14:21:33.112Z,26.30
2019-06-10T14:23:59.566Z,25.80
2019-06-10T14:26:37.916Z,26.20
2019-06-10T14:28:53.941Z,25.90
2019-06-10T14:31:38.644Z,25.70
2019-06-10T14:33:48.312Z,25.70
2019-06-10T14:36:16.722Z,25.50
2019-06-10T14:38:42.685Z,25.40
2019-06-10T14:41:10.010Z,25.40
2019-06-10T14:43:36.463Z,25.00
2019-06-10T14:46:02.793Z,24.70
2019-06-10T14:48:29.125Z,24.60
2019-06-10T14:50:55.392Z,24.70
2019-06-10T14:53:23.042Z,24.60
2019-06-10T14:55:52.895Z,24.60
2019-06-10T14:58:19.431Z,24.70
2019-06-10T15:00:45.971Z,24.80
2019-06-10T15:03:16.180Z,24.80
2019-06-10T15:05:43.170Z,25.40
2019-06-10T15:08:09.362Z,24.80
2019-06-10T15:10:35.777Z,25.10
2019-06-10T15:13:02.310Z,24.60
2019-06-10T15:15:28.660Z,24.80
2019-06-10T15:17:55.019Z,24.90
2019-06-10T15:20:22.728Z,25.20
2019-06-10T15:22:49.186Z,25.20
2019-06-10T15:25:17.574Z,25.10
2019-06-10T15:27:44.276Z,24.60
2019-06-10T15:30:15.818Z,24.60
2019-06-10T15:32:39.061Z,24.60
2019-06-10T15:35:06.117Z,24.50
2019-06-10T15:37:33.067Z,24.50
2019-06-10T15:39:59.512Z,24.50
2019-06-10T15:42:25.757Z,24.80
2019-06-10T15:44:55.855Z,24.60
2019-06-10T15:47:26.337Z,25.20
2019-06-10T15:49:49.441Z,25.40
2019-06-10T15:52:17.518Z,25.50
2019-06-10T15:54:43.814Z,25.30
2019-06-10T15:57:26.554Z,25.40
2019-06-10T15:59:38.191Z,25.30
2019-06-10T16:02:04.430Z,25.20
2019-06-10T16:04:34.939Z,25.00
2019-06-10T16:06:58.806Z,25.30
2019-06-10T16:09:25.054Z,25.10
2019-06-10T16:11:53.704Z,25.00
2019-06-10T16:14:20.723Z,24.60
2019-06-10T16:16:48.414Z,25.10
2019-06-10T16:19:16.291Z,24.80
2019-06-10T16:21:42.966Z,24.60
2019-06-10T16:24:09.337Z,24.90
2019-06-10T16:26:35.990Z,24.70
2019-06-10T16:29:02.788Z,24.40
2019-06-10T16:31:29.174Z,25.00
2019-06-10T16:33:55.435Z,24.80
2019-06-10T16:36:24.420Z,25.20
2019-06-10T16:38:49.901Z,25.10
2019-06-10T16:41:17.446Z,25.30
2019-06-10T16:43:43.869Z,25.20
2019-06-10T16:46:10.197Z,25.10
2019-06-10T16:48:36.458Z,25.30
2019-06-10T16:51:03.455Z,25.20
2019-06-10T16:53:32.183Z,24.90
2019-06-10T16:55:58.158Z,25.30
2019-06-10T16:58:27.943Z,25.00
2019-06-10T17:00:52.826Z,24.50
2019-06-10T17:03:20.358Z,24.30
2019-06-10T17:05:47.205Z,24.20
2019-06-10T17:08:13.529Z,24.00
2019-06-10T17:10:39.769Z,24.10
2019-06-10T17:13:07.904Z,24.00
2019-06-10T17:15:34.249Z,23.80
2019-06-10T17:18:02.649Z,23.90
2019-06-10T17:20:29.740Z,23.70
2019-06-10T17:22:56.154Z,23.70
2019-06-10T17:25:23.897Z,23.70
2019-06-10T17:27:52.717Z,23.70
2019-06-10T17:30:19.488Z,23.70
2019-06-10T17:32:46.088Z,23.60
2019-06-10T17:35:14.553Z,23.60
2019-06-10T17:37:43.077Z,23.70
2019-06-10T17:40:09.038Z,23.70
2019-06-10T17:42:38.446Z,23.70
2019-06-10T17:45:04.633Z,23.50
2019-06-10T17:47:32.358Z,23.40
2019-06-10T17:49:59.017Z,23.60
2019-06-10T17:52:25.959Z,23.20
2019-06-10T17:54:52.601Z,23.10
2019-06-10T17:57:19.221Z,22.40
2019-06-10T17:59:45.456Z,22.20
2019-06-10T18:02:12.343Z,22.10
2019-06-10T18:04:39.142Z,21.70
2019-06-10T18:07:05.388Z,21.50
2019-06-10T18:09:34.759Z,21.50
2019-06-10T18:11:59.770Z,21.40
2019-06-10T18:14:26.016Z,21.30
2019-06-10T18:16:52.532Z,21.60
2019-06-10T18:19:18.778Z,21.50
2019-06-10T18:21:45.025Z,20.90
2019-06-10T18:24:12.753Z,21.10
2019-06-10T18:26:39.144Z,21.20
2019-06-10T18:29:08.976Z,21.10
2019-06-10T18:31:35.269Z,20.80
2019-06-10T18:34:02.503Z,20.80
2019-06-10T18:36:29.984Z,20.60
2019-06-10T18:38:56.928Z,20.40
2019-06-10T18:41:23.184Z,20.80
2019-06-10T18:43:49.435Z,20.70
2019-06-10T18:46:15.666Z,20.50
2019-06-10T18:48:43.063Z,20.60
2019-06-10T18:51:12.321Z,20.20
2019-06-10T18:53:39.023Z,20.20
2019-06-10T18:56:05.441Z,20.20
2019-06-10T18:58:34.043Z,20.10
2019-06-10T19:01:05.282Z,20.20
2019-06-10T19:03:28.516Z,20.30
2019-06-10T19:05:54.858Z,20.00
2019-06-10T19:08:22.378Z,19.90
2019-06-10T19:10:49.038Z,19.80
2019-06-10T19:13:15.279Z,19.60
2019-06-10T19:15:42.586Z,19.70
2019-06-10T19:18:08.961Z,19.20
2019-06-10T19:20:38.707Z,19.70
2019-06-10T19:23:03.635Z,19.30
2019-06-10T19:25:30.910Z,19.00
2019-06-10T19:27:58.448Z,19.40
2019-06-10T19:30:25.097Z,19.20
2019-06-10T19:32:52.792Z,19.30
2019-06-10T19:35:19.501Z,19.10
2019-06-10T19:37:45.836Z,18.70
2019-06-10T19:40:12.597Z,18.70
2019-06-10T19:42:40.199Z,18.70
2019-06-10T19:45:07.370Z,18.40
2019-06-10T19:47:34.611Z,18.60
2019-06-10T19:50:04.956Z,18.60
2019-06-10T19:52:32.519Z,18.50
2019-06-10T19:54:59.377Z,18.10
2019-06-10T19:57:25.712Z,18.30
2019-06-10T20:00:07.405Z,18.60
2019-06-10T20:02:22.464Z,18.10
2019-06-10T20:04:48.850Z,18.20
2019-06-10T20:07:15.086Z,18.40
2019-06-10T20:09:44.511Z,18.20
2019-06-10T20:12:09.449Z,18.20
2019-06-10T20:14:36.428Z,18.20
2019-06-10T20:17:03.330Z,17.80
2019-06-10T20:19:29.671Z,18.00
2019-06-10T20:21:55.910Z,17.70
2019-06-10T20:24:22.446Z,18.00
2019-06-10T20:26:48.804Z,17.90
2019-06-10T20:29:15.029Z,17.70
2019-06-10T20:32:01.155Z,17.60
2019-06-10T20:34:27.487Z,17.80
2019-06-10T20:36:53.837Z,18.00
2019-06-10T20:39:24.329Z,17.90
2019-06-10T20:41:52.303Z,17.60
2019-06-10T20:44:16.944Z,17.20
2019-06-10T20:46:44.991Z,17.50
2019-06-10T20:49:13.534Z,17.20
2019-06-10T20:51:52.077Z,16.80
2019-06-10T20:54:07.622Z,17.10
2019-06-10T20:56:33.870Z,16.90
2019-06-10T20:59:02.622Z,16.90
2019-06-10T21:01:28.702Z,16.80
2019-06-10T21:03:55.031Z,17.20
2019-06-10T21:06:22.635Z,16.90
2019-06-10T21:08:51.929Z,17.00
2019-06-10T21:11:18.164Z,17.30
2019-06-10T21:13:48.648Z,17.10
2019-06-10T21:16:12.930Z,17.00
2019-06-10T21:18:40.312Z,17.20
2019-06-10T21:21:06.740Z,16.90
2019-06-10T21:23:33.254Z,17.30
2019-06-10T21:25:59.501Z,17.20
2019-06-10T21:28:25.745Z,17.20
2019-06-10T21:30:54.906Z,17.20
2019-06-10T21:33:43.800Z,17.30
2019-06-10T21:36:08.381Z,16.90
2019-06-10T21:38:34.617Z,16.90
2019-06-10T21:41:03.034Z,16.80
2019-06-10T21:43:29.018Z,16.80
2019-06-10T21:45:57.789Z,17.20
2019-06-10T21:48:23.872Z,16.70
2019-06-10T21:50:54.216Z,17.00
2019-06-10T21:53:18.252Z,17.10
2019-06-10T21:55:45.189Z,16.70
2019-06-10T21:58:11.593Z,16.80
2019-06-10T22:00:53.873Z,17.00
2019-06-10T22:03:08.176Z,17.10
2019-06-10T22:05:34.405Z,17.30
2019-06-10T22:08:02.985Z,17.50
2019-06-10T22:10:28.890Z,17.20
2019-06-10T22:12:55.764Z,17.00
2019-06-10T22:15:22.565Z,16.90
2019-06-10T22:17:50.416Z,16.90
2019-06-10T22:20:18.041Z,17.20
2019-06-10T22:22:44.524Z,17.60
2019-06-10T22:25:13.031Z,17.30
2019-06-10T22:27:39.194Z,17.40
2019-06-10T22:30:11.247Z,17.20
2019-06-10T22:32:34.360Z,17.20
2019-06-10T22:35:02.863Z,17.30
2019-06-10T22:37:28.729Z,17.50
2019-06-10T22:39:56.638Z,17.10
2019-06-10T22:42:23.546Z,17.20
2019-06-10T22:44:49.781Z,17.20
2019-06-10T22:47:16.440Z,17.30
2019-06-10T22:49:43.189Z,17.60
2019-06-10T22:52:12.422Z,17.60
2019-06-10T22:54:38.407Z,17.50
2019-06-10T22:57:04.644Z,17.30
2019-06-10T22:59:30.896Z,17.70
2019-06-10T23:01:58.200Z,17.40
2019-06-10T23:04:25.278Z,17.60
2019-06-10T23:06:53.350Z,17.50
2019-06-10T23:09:22.208Z,17.60
2019-06-10T23:11:48.514Z,17.40
2019-06-10T23:14:14.830Z,17.60
2019-06-10T23:16:42.762Z,17.30
2019-06-10T23:19:09.210Z,17.50
2019-06-10T23:21:35.833Z,17.60
2019-06-10T23:24:03.129Z,17.80
2019-06-10T23:26:30.030Z,17.60
2019-06-10T23:28:58.493Z,17.50
2019-06-10T23:31:24.512Z,17.70
2019-06-10T23:33:53.478Z,17.60
2019-06-10T23:36:19.128Z,17.40
2019-06-10T23:38:45.474Z,17.30
2019-06-10T23:41:13.020Z,17.50
2019-06-10T23:43:39.592Z,17.20
2019-06-10T23:46:06.005Z,17.20
2019-06-10T23:48:32.958Z,17.60
2019-06-10T23:51:00.467Z,17.70
2019-06-10T23:53:27.534Z,17.30
2019-06-10T23:55:54.693Z,17.40
2019-06-10T23:58:22.840Z,17.30
